sensor_id;sensor_type;location;lat;lon;timestamp;pressure;altitude;pressure_sealevel;temperature;humidity
43934;BME280;59081;42.706;23.306;2023-05-17T00:00:18;94595.41;;;14.54;100.00
43934;BME280;59081;42.706;23.306;2023-05-17T00:02:44;94637.66;;;14.78;100.00
43934;BME280;59081;42.706;23.306;2023-05-17T00:05:09;94601.81;;;14.45;100.00
43934;BME280;59081;42.706;23.306;2023-05-17T00:07:36;94614.59;;;14.43;100.00
43934;BME280;59081;42.706;23.306;2023-05-17T00:10:02;94568.84;;;14.09;100.00
43934;BME280;59081;42.706;23.306;2023-05-17T00:12:33;94530.41;;;13.87;100.00
43934;BME280;59081;42.706;23.306;2023-05-17T00:15:05;94650.94;;;14.59;100.00
43934;BME280;59081;42.706;23.306;2023-05-17T00:17:33;94647.97;;;14.63;100.00
43934;BME280;59081;42.706;23.306;2023-05-17T00:19:58;94552.22;;;14.09;100.00
43934;BME280;59081;42.706;23.306;2023-05-17T00:22:26;94612.69;;;14.49;100.00
43934;BME280;59081;42.706;23.306;2023-05-17T00:24:52;94604.75;;;14.42;100.00
43934;BME280;59081;42.706;23.306;2023-05-17T00:27:23;94563.09;;;13.98;100.00
43934;BME280;59081;42.706;23.306;2023-05-17T00:29:54;94584.63;;;14.17;100.00
43934;BME280;59081;42.706;23.306;2023-05-17T00:32:22;94586.38;;;13.91;100.00
43934;BME280;59081;42.706;23.306;2023-05-17T00:34:47;94549.94;;;13.69;100.00
43934;BME280;59081;42.706;23.306;2023-05-17T00:37:18;94632.19;;;14.16;100.00
43934;BME280;59081;42.706;23.306;2023-05-17T00:39:49;94641.06;;;14.20;100.00
43934;BME280;59081;42.706;23.306;2023-05-17T00:42:15;94540.75;;;13.63;100.00
43934;BME280;59081;42.706;23.306;2023-05-17T00:44:43;94588.97;;;13.94;100.00
43934;BME280;59081;42.706;23.306;2023-05-17T00:47:09;94579.59;;;13.68;100.00
43934;BME280;59081;42.706;23.306;2023-05-17T00:49:35;94534.22;;;13.27;100.00
43934;BME280;59081;42.706;23.306;2023-05-17T00:52:00;94564.19;;;13.52;100.00
43934;BME280;59081;42.706;23.306;2023-05-17T00:54:26;94568.75;;;13.65;100.00
43934;BME280;59081;42.706;23.306;2023-05-17T00:56:52;94561.97;;;13.66;100.00
43934;BME280;59081;42.706;23.306;2023-05-17T00:59:20;94651.69;;;14.21;100.00
43934;BME280;59081;42.706;23.306;2023-05-17T01:01:47;94577.50;;;13.63;100.00
43934;BME280;59081;42.706;23.306;2023-05-17T01:04:14;94574.84;;;13.45;100.00
43934;BME280;59081;42.706;23.306;2023-05-17T01:06:46;94657.72;;;13.96;100.00
43934;BME280;59081;42.706;23.306;2023-05-17T01:09:12;94630.06;;;13.87;100.00
43934;BME280;59081;42.706;23.306;2023-05-17T01:17:12;94570.13;;;13.36;100.00
43934;BME280;59081;42.706;23.306;2023-05-17T01:23:00;94616.31;;;13.78;100.00
43934;BME280;59081;42.706;23.306;2023-05-17T01:25:48;94640.81;;;13.94;100.00
43934;BME280;59081;42.706;23.306;2023-05-17T01:28:15;94640.59;;;13.83;100.00
43934;BME280;59081;42.706;23.306;2023-05-17T01:30:46;94642.22;;;13.66;100.00
43934;BME280;59081;42.706;23.306;2023-05-17T01:33:15;94605.69;;;13.52;100.00
43934;BME280;59081;42.706;23.306;2023-05-17T01:35:44;94571.25;;;13.30;100.00
43934;BME280;59081;42.706;23.306;2023-05-17T01:38:15;94557.94;;;13.19;100.00
43934;BME280;59081;42.706;23.306;2023-05-17T01:40:49;94607.53;;;13.55;100.00
43934;BME280;59081;42.706;23.306;2023-05-17T01:43:45;94642.03;;;13.69;100.00
43934;BME280;59081;42.706;23.306;2023-05-17T01:49:08;94649.41;;;13.72;100.00
43934;BME280;59081;42.706;23.306;2023-05-17T01:51:47;94562.34;;;12.93;100.00
43934;BME280;59081;42.706;23.306;2023-05-17T01:54:14;94564.03;;;12.90;100.00
43934;BME280;59081;42.706;23.306;2023-05-17T01:56:47;94561.41;;;12.96;100.00
43934;BME280;59081;42.706;23.306;2023-05-17T01:59:19;94596.00;;;13.24;100.00
43934;BME280;59081;42.706;23.306;2023-05-17T02:01:57;94567.47;;;13.09;100.00
43934;BME280;59081;42.706;23.306;2023-05-17T02:04:29;94655.22;;;13.50;100.00
43934;BME280;59081;42.706;23.306;2023-05-17T02:06:54;94546.72;;;12.80;100.00
43934;BME280;59081;42.706;23.306;2023-05-17T02:09:20;94585.97;;;12.94;100.00
43934;BME280;59081;42.706;23.306;2023-05-17T02:11:48;94565.59;;;12.82;100.00
43934;BME280;59081;42.706;23.306;2023-05-17T02:14:14;94645.13;;;13.38;100.00
43934;BME280;59081;42.706;23.306;2023-05-17T02:16:43;94616.31;;;13.21;100.00
43934;BME280;59081;42.706;23.306;2023-05-17T02:19:08;94559.13;;;12.85;100.00
43934;BME280;59081;42.706;23.306;2023-05-17T02:21:34;94596.97;;;13.12;100.00
43934;BME280;59081;42.706;23.306;2023-05-17T02:24:00;94559.91;;;12.85;100.00
43934;BME280;59081;42.706;23.306;2023-05-17T02:26:26;94557.03;;;12.80;100.00
43934;BME280;59081;42.706;23.306;2023-05-17T02:28:52;94527.09;;;12.69;100.00
43934;BME280;59081;42.706;23.306;2023-05-17T02:31:18;94548.84;;;12.85;100.00
43934;BME280;59081;42.706;23.306;2023-05-17T02:33:44;94568.47;;;12.97;100.00
43934;BME280;59081;42.706;23.306;2023-05-17T02:36:12;94539.38;;;12.68;100.00
43934;BME280;59081;42.706;23.306;2023-05-17T02:38:37;94584.06;;;13.09;100.00
43934;BME280;59081;42.706;23.306;2023-05-17T02:41:03;94633.44;;;13.34;100.00
43934;BME280;59081;42.706;23.306;2023-05-17T02:43:29;94534.16;;;12.70;100.00
43934;BME280;59081;42.706;23.306;2023-05-17T02:45:55;94559.47;;;12.78;100.00
43934;BME280;59081;42.706;23.306;2023-05-17T02:48:23;94546.44;;;12.69;100.00
43934;BME280;59081;42.706;23.306;2023-05-17T02:50:49;94566.84;;;12.81;100.00
43934;BME280;59081;42.706;23.306;2023-05-17T02:53:14;94576.69;;;12.73;100.00
43934;BME280;59081;42.706;23.306;2023-05-17T02:55:40;94663.00;;;13.28;100.00
43934;BME280;59081;42.706;23.306;2023-05-17T02:58:06;94571.91;;;12.73;100.00
43934;BME280;59081;42.706;23.306;2023-05-17T03:00:31;94595.72;;;12.80;100.00
43934;BME280;59081;42.706;23.306;2023-05-17T03:02:59;94673.75;;;13.26;100.00
43934;BME280;59081;42.706;23.306;2023-05-17T03:05:26;94593.13;;;12.67;100.00
43934;BME280;59081;42.706;23.306;2023-05-17T03:07:51;94595.09;;;12.67;100.00
43934;BME280;59081;42.706;23.306;2023-05-17T03:10:17;94620.69;;;12.85;100.00
43934;BME280;59081;42.706;23.306;2023-05-17T03:12:43;94597.75;;;12.61;100.00
43934;BME280;59081;42.706;23.306;2023-05-17T03:15:09;94654.81;;;12.64;100.00
43934;BME280;59081;42.706;23.306;2023-05-17T03:17:35;94596.88;;;12.37;100.00
43934;BME280;59081;42.706;23.306;2023-05-17T03:20:03;94613.72;;;12.48;100.00
43934;BME280;59081;42.706;23.306;2023-05-17T03:22:30;94636.13;;;12.59;100.00
43934;BME280;59081;42.706;23.306;2023-05-17T03:24:58;94704.09;;;12.93;100.00
43934;BME280;59081;42.706;23.306;2023-05-17T03:27:24;94630.31;;;12.30;100.00
43934;BME280;59081;42.706;23.306;2023-05-17T03:29:59;94632.78;;;12.37;100.00
43934;BME280;59081;42.706;23.306;2023-05-17T03:32:24;94652.09;;;12.55;100.00
43934;BME280;59081;42.706;23.306;2023-05-17T03:34:52;94684.91;;;12.71;100.00
43934;BME280;59081;42.706;23.306;2023-05-17T03:37:21;94569.59;;;12.02;100.00
43934;BME280;59081;42.706;23.306;2023-05-17T03:39:46;94587.22;;;12.14;100.00
43934;BME280;59081;42.706;23.306;2023-05-17T03:42:14;94657.00;;;12.51;100.00
43934;BME280;59081;42.706;23.306;2023-05-17T03:44:40;94636.00;;;12.35;100.00
43934;BME280;59081;42.706;23.306;2023-05-17T03:47:06;94638.63;;;12.20;100.00
43934;BME280;59081;42.706;23.306;2023-05-17T03:49:36;94680.03;;;12.57;100.00
43934;BME280;59081;42.706;23.306;2023-05-17T03:52:09;94586.31;;;11.90;100.00
43934;BME280;59081;42.706;23.306;2023-05-17T03:54:35;94554.88;;;11.78;100.00
43934;BME280;59081;42.706;23.306;2023-05-17T03:57:03;94574.81;;;11.82;100.00
43934;BME280;59081;42.706;23.306;2023-05-17T03:59:35;94646.88;;;12.30;100.00
43934;BME280;59081;42.706;23.306;2023-05-17T04:02:00;94685.84;;;12.59;100.00
43934;BME280;59081;42.706;23.306;2023-05-17T04:04:28;94649.94;;;12.32;100.00
43934;BME280;59081;42.706;23.306;2023-05-17T04:06:59;94582.13;;;12.31;100.00
43934;BME280;59081;42.706;23.306;2023-05-17T04:09:34;94690.41;;;12.89;100.00
43934;BME280;59081;42.706;23.306;2023-05-17T04:12:02;94610.25;;;12.29;100.00
43934;BME280;59081;42.706;23.306;2023-05-17T04:14:39;94631.25;;;12.27;100.00
43934;BME280;59081;42.706;23.306;2023-05-17T04:17:13;94638.59;;;12.30;100.00
43934;BME280;59081;42.706;23.306;2023-05-17T04:19:49;94615.59;;;12.24;100.00
43934;BME280;59081;42.706;23.306;2023-05-17T04:22:15;94578.81;;;12.08;100.00
43934;BME280;59081;42.706;23.306;2023-05-17T04:24:41;94646.25;;;12.62;100.00
43934;BME280;59081;42.706;23.306;2023-05-17T04:27:07;94609.75;;;12.40;100.00
43934;BME280;59081;42.706;23.306;2023-05-17T04:29:33;94614.50;;;12.48;100.00
43934;BME280;59081;42.706;23.306;2023-05-17T04:32:01;94702.22;;;12.99;100.00
43934;BME280;59081;42.706;23.306;2023-05-17T04:34:26;94594.44;;;12.20;100.00
43934;BME280;59081;42.706;23.306;2023-05-17T04:36:57;94620.47;;;12.56;100.00
43934;BME280;59081;42.706;23.306;2023-05-17T04:39:23;94690.69;;;13.01;100.00
43934;BME280;59081;42.706;23.306;2023-05-17T04:41:54;94615.44;;;12.45;100.00
43934;BME280;59081;42.706;23.306;2023-05-17T04:44:23;94664.63;;;12.93;100.00
43934;BME280;59081;42.706;23.306;2023-05-17T04:46:48;94646.19;;;12.99;100.00
43934;BME280;59081;42.706;23.306;2023-05-17T04:49:14;94614.75;;;12.78;100.00
43934;BME280;59081;42.706;23.306;2023-05-17T04:51:42;94678.66;;;13.31;100.00
43934;BME280;59081;42.706;23.306;2023-05-17T04:54:08;94633.66;;;13.21;100.00
43934;BME280;59081;42.706;23.306;2023-05-17T04:56:45;94641.47;;;13.32;100.00
43934;BME280;59081;42.706;23.306;2023-05-17T04:59:11;94647.28;;;13.34;99.89
43934;BME280;59081;42.706;23.306;2023-05-17T05:01:37;94618.91;;;13.24;98.88
43934;BME280;59081;42.706;23.306;2023-05-17T05:04:02;94702.25;;;13.83;99.28
43934;BME280;59081;42.706;23.306;2023-05-17T05:06:31;94619.28;;;13.41;97.97
43934;BME280;59081;42.706;23.306;2023-05-17T05:08:59;94636.47;;;13.45;96.41
43934;BME280;59081;42.706;23.306;2023-05-17T05:14:23;94681.22;;;14.24;100.00
43934;BME280;59081;42.706;23.306;2023-05-17T05:16:48;94602.72;;;13.65;97.96
43934;BME280;59081;42.706;23.306;2023-05-17T05:19:14;94686.34;;;14.41;94.73
43934;BME280;59081;42.706;23.306;2023-05-17T05:21:39;94624.31;;;13.76;92.90
43934;BME280;59081;42.706;23.306;2023-05-17T05:24:05;94676.34;;;14.19;93.99
43934;BME280;59081;42.706;23.306;2023-05-17T05:26:30;94655.69;;;14.20;92.78
43934;BME280;59081;42.706;23.306;2023-05-17T05:28:57;94678.78;;;14.41;91.90
43934;BME280;59081;42.706;23.306;2023-05-17T05:31:22;94619.84;;;14.02;91.28
43934;BME280;59081;42.706;23.306;2023-05-17T05:33:48;94662.63;;;14.40;92.06
43934;BME280;59081;42.706;23.306;2023-05-17T05:36:14;94648.06;;;14.54;90.99
43934;BME280;59081;42.706;23.306;2023-05-17T05:38:39;94661.06;;;14.62;90.22
43934;BME280;59081;42.706;23.306;2023-05-17T05:41:05;94640.59;;;14.60;90.09
43934;BME280;59081;42.706;23.306;2023-05-17T05:43:30;94715.81;;;15.21;88.79
43934;BME280;59081;42.706;23.306;2023-05-17T05:45:56;94664.06;;;14.88;87.93
43934;BME280;59081;42.706;23.306;2023-05-17T05:48:21;94680.03;;;15.08;87.92
43934;BME280;59081;42.706;23.306;2023-05-17T05:50:47;94632.59;;;14.91;87.02
43934;BME280;59081;42.706;23.306;2023-05-17T05:53:12;94730.56;;;15.56;87.10
43934;BME280;59081;42.706;23.306;2023-05-17T05:55:41;94640.22;;;15.26;86.41
43934;BME280;59081;42.706;23.306;2023-05-17T05:58:07;94686.13;;;15.71;84.71
43934;BME280;59081;42.706;23.306;2023-05-17T06:00:33;94671.97;;;15.54;83.90
43934;BME280;59081;42.706;23.306;2023-05-17T06:02:58;94727.44;;;15.84;84.22
43934;BME280;59081;42.706;23.306;2023-05-17T06:05:24;94663.47;;;15.58;82.69
43934;BME280;59081;42.706;23.306;2023-05-17T06:07:50;94643.06;;;15.46;82.43
43934;BME280;59081;42.706;23.306;2023-05-17T06:10:15;94702.75;;;15.86;81.92
43934;BME280;59081;42.706;23.306;2023-05-17T06:12:41;94737.16;;;16.09;81.15
43934;BME280;59081;42.706;23.306;2023-05-17T06:15:07;94712.13;;;15.88;80.55
43934;BME280;59081;42.706;23.306;2023-05-17T06:17:32;94631.28;;;15.51;79.74
43934;BME280;59081;42.706;23.306;2023-05-17T06:19:58;94678.34;;;16.10;80.42
43934;BME280;59081;42.706;23.306;2023-05-17T06:22:23;94654.19;;;15.81;78.07
43934;BME280;59081;42.706;23.306;2023-05-17T06:24:49;94641.25;;;15.93;78.67
43934;BME280;59081;42.706;23.306;2023-05-17T06:27:15;94632.75;;;16.02;77.92
43934;BME280;59081;42.706;23.306;2023-05-17T06:29:40;94753.94;;;16.55;75.96
43934;BME280;59081;42.706;23.306;2023-05-17T06:32:06;94723.06;;;16.32;77.81
43934;BME280;59081;42.706;23.306;2023-05-17T06:34:31;94655.94;;;15.99;77.96
43934;BME280;59081;42.706;23.306;2023-05-17T06:36:57;94632.25;;;15.83;77.76
43934;BME280;59081;42.706;23.306;2023-05-17T06:39:23;94646.66;;;16.02;77.02
43934;BME280;59081;42.706;23.306;2023-05-17T06:41:48;94659.22;;;16.38;77.32
43934;BME280;59081;42.706;23.306;2023-05-17T06:44:14;94714.91;;;16.64;76.02
43934;BME280;59081;42.706;23.306;2023-05-17T06:46:39;94636.72;;;15.95;76.79
43934;BME280;59081;42.706;23.306;2023-05-17T06:49:05;94742.28;;;16.71;77.13
43934;BME280;59081;42.706;23.306;2023-05-17T06:51:30;94650.13;;;16.17;77.27
43934;BME280;59081;42.706;23.306;2023-05-17T06:53:56;94678.19;;;16.60;77.27
43934;BME280;59081;42.706;23.306;2023-05-17T06:56:21;94734.31;;;17.04;76.59
43934;BME280;59081;42.706;23.306;2023-05-17T06:58:47;94701.09;;;16.95;76.08
43934;BME280;59081;42.706;23.306;2023-05-17T07:01:12;94703.41;;;16.97;76.43
43934;BME280;59081;42.706;23.306;2023-05-17T07:03:38;94677.84;;;16.73;77.16
43934;BME280;59081;42.706;23.306;2023-05-17T07:06:03;94653.50;;;16.47;77.77
43934;BME280;59081;42.706;23.306;2023-05-17T07:08:29;94720.13;;;17.02;77.52
43934;BME280;59081;42.706;23.306;2023-05-17T07:10:55;94705.28;;;16.85;77.51
43934;BME280;59081;42.706;23.306;2023-05-17T07:13:20;94712.06;;;17.04;77.05
43934;BME280;59081;42.706;23.306;2023-05-17T07:15:46;94656.63;;;16.75;76.78
43934;BME280;59081;42.706;23.306;2023-05-17T07:18:11;94676.81;;;16.70;77.58
43934;BME280;59081;42.706;23.306;2023-05-17T07:20:37;94661.38;;;16.28;77.91
43934;BME280;59081;42.706;23.306;2023-05-17T07:23:02;94715.25;;;16.72;79.12
43934;BME280;59081;42.706;23.306;2023-05-17T07:25:28;94649.81;;;16.56;78.19
43934;BME280;59081;42.706;23.306;2023-05-17T07:27:53;94680.19;;;16.80;77.02
43934;BME280;59081;42.706;23.306;2023-05-17T07:30:19;94672.78;;;16.71;76.47
43934;BME280;59081;42.706;23.306;2023-05-17T07:32:44;94711.69;;;16.91;77.94
43934;BME280;59081;42.706;23.306;2023-05-17T07:35:10;94669.00;;;17.00;77.34
43934;BME280;59081;42.706;23.306;2023-05-17T07:37:35;94765.72;;;17.83;75.83
43934;BME280;59081;42.706;23.306;2023-05-17T07:40:01;94699.78;;;17.43;74.93
43934;BME280;59081;42.706;23.306;2023-05-17T07:42:27;94670.97;;;16.68;75.95
43934;BME280;59081;42.706;23.306;2023-05-17T07:44:52;94688.81;;;16.82;76.94
43934;BME280;59081;42.706;23.306;2023-05-17T07:47:17;94711.22;;;16.98;77.48
43934;BME280;59081;42.706;23.306;2023-05-17T07:49:43;94704.72;;;17.33;78.22
43934;BME280;59081;42.706;23.306;2023-05-17T07:52:08;94745.50;;;17.62;77.83
43934;BME280;59081;42.706;23.306;2023-05-17T07:54:34;94696.38;;;17.33;76.34
43934;BME280;59081;42.706;23.306;2023-05-17T07:56:59;94693.97;;;17.46;75.86
43934;BME280;59081;42.706;23.306;2023-05-17T07:59:25;94695.09;;;17.60;74.76
43934;BME280;59081;42.706;23.306;2023-05-17T08:01:51;94693.16;;;17.40;74.82
43934;BME280;59081;42.706;23.306;2023-05-17T08:04:16;94699.50;;;17.40;75.79
43934;BME280;59081;42.706;23.306;2023-05-17T08:06:43;94673.94;;;17.42;74.77
43934;BME280;59081;42.706;23.306;2023-05-17T08:09:11;94692.19;;;17.43;74.27
43934;BME280;59081;42.706;23.306;2023-05-17T08:11:36;94663.78;;;17.08;75.32
43934;BME280;59081;42.706;23.306;2023-05-17T08:14:05;94688.00;;;17.27;75.42
43934;BME280;59081;42.706;23.306;2023-05-17T08:16:31;94715.66;;;17.36;75.77
43934;BME280;59081;42.706;23.306;2023-05-17T08:18:56;94703.38;;;17.49;75.43
43934;BME280;59081;42.706;23.306;2023-05-17T08:21:22;94691.09;;;17.35;75.39
43934;BME280;59081;42.706;23.306;2023-05-17T08:23:48;94708.81;;;17.63;75.41
43934;BME280;59081;42.706;23.306;2023-05-17T08:26:14;94741.75;;;17.96;76.44
43934;BME280;59081;42.706;23.306;2023-05-17T08:28:40;94683.41;;;17.87;74.43
43934;BME280;59081;42.706;23.306;2023-05-17T08:31:05;94679.44;;;17.99;73.76
43934;BME280;59081;42.706;23.306;2023-05-17T08:33:31;94665.25;;;17.97;73.80
43934;BME280;59081;42.706;23.306;2023-05-17T08:35:57;94671.19;;;18.22;72.79
43934;BME280;59081;42.706;23.306;2023-05-17T08:38:25;94681.22;;;17.97;73.93
43934;BME280;59081;42.706;23.306;2023-05-17T08:40:56;94679.69;;;18.01;72.71
43934;BME280;59081;42.706;23.306;2023-05-17T08:43:24;94678.38;;;17.91;73.65
43934;BME280;59081;42.706;23.306;2023-05-17T08:45:49;94713.38;;;17.98;74.21
43934;BME280;59081;42.706;23.306;2023-05-17T08:48:15;94669.88;;;17.69;73.72
43934;BME280;59081;42.706;23.306;2023-05-17T08:50:45;94679.19;;;17.97;74.39
43934;BME280;59081;42.706;23.306;2023-05-17T08:53:12;94692.00;;;18.26;72.68
43934;BME280;59081;42.706;23.306;2023-05-17T08:55:39;94655.72;;;17.41;74.36
43934;BME280;59081;42.706;23.306;2023-05-17T08:58:06;94726.44;;;18.18;74.33
43934;BME280;59081;42.706;23.306;2023-05-17T09:00:32;94748.34;;;18.41;73.34
43934;BME280;59081;42.706;23.306;2023-05-17T09:02:59;94678.06;;;17.84;73.55
43934;BME280;59081;42.706;23.306;2023-05-17T09:05:27;94739.31;;;18.52;72.67
43934;BME280;59081;42.706;23.306;2023-05-17T09:07:53;94671.19;;;18.16;72.88
43934;BME280;59081;42.706;23.306;2023-05-17T09:10:19;94667.69;;;17.84;73.28
43934;BME280;59081;42.706;23.306;2023-05-17T09:12:45;94681.00;;;18.06;72.94
43934;BME280;59081;42.706;23.306;2023-05-17T09:15:15;94666.88;;;18.21;72.40
43934;BME280;59081;42.706;23.306;2023-05-17T09:17:42;94633.97;;;17.77;73.19
43934;BME280;59081;42.706;23.306;2023-05-17T09:20:08;94641.22;;;18.00;73.50
43934;BME280;59081;42.706;23.306;2023-05-17T09:22:35;94660.22;;;18.07;72.99
43934;BME280;59081;42.706;23.306;2023-05-17T09:25:03;94705.44;;;18.76;74.02
43934;BME280;59081;42.706;23.306;2023-05-17T09:27:32;94658.66;;;18.54;72.89
43934;BME280;59081;42.706;23.306;2023-05-17T09:29:57;94708.94;;;18.71;72.09
43934;BME280;59081;42.706;23.306;2023-05-17T09:32:23;94688.22;;;18.29;72.53
43934;BME280;59081;42.706;23.306;2023-05-17T09:34:52;94632.50;;;17.87;72.56
43934;BME280;59081;42.706;23.306;2023-05-17T09:37:20;94637.47;;;17.71;73.56
43934;BME280;59081;42.706;23.306;2023-05-17T09:39:47;94636.53;;;17.86;74.99
43934;BME280;59081;42.706;23.306;2023-05-17T09:42:13;94685.78;;;18.48;73.77
43934;BME280;59081;42.706;23.306;2023-05-17T09:44:49;94704.28;;;18.46;72.59
43934;BME280;59081;42.706;23.306;2023-05-17T09:47:27;94723.97;;;18.79;73.10
43934;BME280;59081;42.706;23.306;2023-05-17T09:49:57;94637.63;;;17.94;72.76
43934;BME280;59081;42.706;23.306;2023-05-17T09:52:25;94666.75;;;18.47;71.90
43934;BME280;59081;42.706;23.306;2023-05-17T09:54:56;94738.66;;;18.68;71.67
43934;BME280;59081;42.706;23.306;2023-05-17T09:57:24;94679.31;;;18.25;72.25
43934;BME280;59081;42.706;23.306;2023-05-17T09:59:50;94723.06;;;18.51;72.31
43934;BME280;59081;42.706;23.306;2023-05-17T10:02:27;94711.34;;;18.35;72.80
43934;BME280;59081;42.706;23.306;2023-05-17T10:04:55;94725.34;;;18.52;73.14
43934;BME280;59081;42.706;23.306;2023-05-17T10:07:23;94655.75;;;18.26;72.50
43934;BME280;59081;42.706;23.306;2023-05-17T10:09:50;94706.16;;;18.65;71.65
43934;BME280;59081;42.706;23.306;2023-05-17T10:12:20;94711.75;;;18.71;71.61
43934;BME280;59081;42.706;23.306;2023-05-17T10:14:47;94613.72;;;18.30;71.25
43934;BME280;59081;42.706;23.306;2023-05-17T10:17:14;94697.47;;;18.58;71.65
43934;BME280;59081;42.706;23.306;2023-05-17T10:19:40;94621.94;;;18.02;71.92
43934;BME280;59081;42.706;23.306;2023-05-17T10:22:06;94632.09;;;18.05;72.16
43934;BME280;59081;42.706;23.306;2023-05-17T10:24:34;94623.09;;;17.84;71.65
43934;BME280;59081;42.706;23.306;2023-05-17T10:27:04;94661.28;;;18.15;71.70
43934;BME280;59081;42.706;23.306;2023-05-17T10:29:31;94669.25;;;18.33;71.37
43934;BME280;59081;42.706;23.306;2023-05-17T10:31:57;94605.72;;;17.95;70.71
43934;BME280;59081;42.706;23.306;2023-05-17T10:34:25;94634.84;;;17.94;72.29
43934;BME280;59081;42.706;23.306;2023-05-17T10:36:52;94590.75;;;17.55;71.81
43934;BME280;59081;42.706;23.306;2023-05-17T10:39:19;94598.84;;;17.90;71.46
43934;BME280;59081;42.706;23.306;2023-05-17T10:41:47;94530.69;;;17.43;71.60
43934;BME280;59081;42.706;23.306;2023-05-17T10:44:16;94537.44;;;17.68;71.26
43934;BME280;59081;42.706;23.306;2023-05-17T10:46:55;94569.75;;;17.97;71.33
43934;BME280;59081;42.706;23.306;2023-05-17T10:49:35;94612.09;;;18.06;71.55
43934;BME280;59081;42.706;23.306;2023-05-17T10:52:19;94519.28;;;17.41;72.03
43934;BME280;59081;42.706;23.306;2023-05-17T10:54:47;94531.97;;;17.42;72.80
43934;BME280;59081;42.706;23.306;2023-05-17T10:57:31;94515.44;;;17.76;72.50
43934;BME280;59081;42.706;23.306;2023-05-17T10:59:59;94552.81;;;18.12;71.83
43934;BME280;59081;42.706;23.306;2023-05-17T11:02:26;94506.91;;;18.01;72.96
43934;BME280;59081;42.706;23.306;2023-05-17T11:04:53;94511.50;;;17.99;72.41
43934;BME280;59081;42.706;23.306;2023-05-17T11:07:21;94577.53;;;18.47;72.80
43934;BME280;59081;42.706;23.306;2023-05-17T11:09:50;94518.63;;;18.11;70.99
43934;BME280;59081;42.706;23.306;2023-05-17T11:14:54;94558.94;;;18.27;69.50
43934;BME280;59081;42.706;23.306;2023-05-17T11:17:23;94509.22;;;17.97;69.75
43934;BME280;59081;42.706;23.306;2023-05-17T11:22:17;94616.19;;;18.87;71.52
43934;BME280;59081;42.706;23.306;2023-05-17T11:24:43;94577.66;;;18.09;72.84
43934;BME280;59081;42.706;23.306;2023-05-17T11:27:12;94606.25;;;17.99;74.15
43934;BME280;59081;42.706;23.306;2023-05-17T11:29:41;94621.34;;;17.87;74.19
43934;BME280;59081;42.706;23.306;2023-05-17T11:32:09;94653.53;;;17.88;75.31
43934;BME280;59081;42.706;23.306;2023-05-17T11:34:34;94620.38;;;17.90;75.44
43934;BME280;59081;42.706;23.306;2023-05-17T11:37:00;94600.28;;;17.74;74.72
43934;BME280;59081;42.706;23.306;2023-05-17T11:39:25;94634.47;;;17.75;75.57
43934;BME280;59081;42.706;23.306;2023-05-17T11:41:55;94593.75;;;17.46;76.49
43934;BME280;59081;42.706;23.306;2023-05-17T11:47:05;94588.69;;;17.50;75.73
43934;BME280;59081;42.706;23.306;2023-05-17T11:49:32;94690.66;;;18.11;75.24
43934;BME280;59081;42.706;23.306;2023-05-17T11:51:59;94621.66;;;17.57;75.46
43934;BME280;59081;42.706;23.306;2023-05-17T11:54:24;94666.44;;;17.85;74.90
43934;BME280;59081;42.706;23.306;2023-05-17T11:56:54;94681.31;;;17.77;74.75
43934;BME280;59081;42.706;23.306;2023-05-17T11:59:20;94649.25;;;17.55;75.75
43934;BME280;59081;42.706;23.306;2023-05-17T12:01:48;94567.88;;;17.03;74.48
43934;BME280;59081;42.706;23.306;2023-05-17T12:04:22;94639.50;;;17.39;74.39
43934;BME280;59081;42.706;23.306;2023-05-17T12:06:49;94601.50;;;17.31;74.20
43934;BME280;59081;42.706;23.306;2023-05-17T12:09:17;94600.13;;;17.21;73.91
43934;BME280;59081;42.706;23.306;2023-05-17T12:11:43;94574.06;;;17.18;73.29
43934;BME280;59081;42.706;23.306;2023-05-17T12:14:09;94613.34;;;17.26;73.91
43934;BME280;59081;42.706;23.306;2023-05-17T12:16:40;94573.75;;;17.11;74.26
43934;BME280;59081;42.706;23.306;2023-05-17T12:19:20;94552.41;;;16.96;74.16
43934;BME280;59081;42.706;23.306;2023-05-17T12:21:46;94591.97;;;17.12;75.06
43934;BME280;59081;42.706;23.306;2023-05-17T12:24:12;94594.63;;;17.32;74.84
43934;BME280;59081;42.706;23.306;2023-05-17T12:26:45;94595.78;;;17.51;73.36
43934;BME280;59081;42.706;23.306;2023-05-17T12:29:11;94582.84;;;17.43;71.32
43934;BME280;59081;42.706;23.306;2023-05-17T12:31:40;94601.91;;;17.55;71.91
43934;BME280;59081;42.706;23.306;2023-05-17T12:34:07;94596.25;;;17.44;72.03
43934;BME280;59081;42.706;23.306;2023-05-17T12:36:41;94587.66;;;17.42;72.90
43934;BME280;59081;42.706;23.306;2023-05-17T12:39:08;94593.53;;;17.55;72.98
43934;BME280;59081;42.706;23.306;2023-05-17T12:41:36;94596.53;;;17.83;71.71
43934;BME280;59081;42.706;23.306;2023-05-17T12:44:03;94625.25;;;18.00;72.28
43934;BME280;59081;42.706;23.306;2023-05-17T12:46:29;94601.25;;;17.71;72.31
43934;BME280;59081;42.706;23.306;2023-05-17T12:49:00;94654.91;;;18.09;73.84
43934;BME280;59081;42.706;23.306;2023-05-17T12:51:40;94619.69;;;18.00;74.19
43934;BME280;59081;42.706;23.306;2023-05-17T12:54:07;94550.63;;;17.36;74.09
43934;BME280;59081;42.706;23.306;2023-05-17T12:56:33;94561.81;;;17.42;74.55
43934;BME280;59081;42.706;23.306;2023-05-17T12:59:15;94600.72;;;17.67;75.66
43934;BME280;59081;42.706;23.306;2023-05-17T13:01:43;94643.66;;;17.87;74.68
43934;BME280;59081;42.706;23.306;2023-05-17T13:04:10;94624.09;;;17.76;75.22
43934;BME280;59081;42.706;23.306;2023-05-17T13:06:51;94528.06;;;16.91;75.33
43934;BME280;59081;42.706;23.306;2023-05-17T13:09:18;94554.88;;;17.26;75.02